createdAt,value
2022-10-23T00:00:10.660Z,12.23
2022-10-23T00:01:44.481Z,12.30
2022-10-23T00:03:16.485Z,12.13
2022-10-23T00:04:52.130Z,13.30
2022-10-23T00:06:24.865Z,14.02
2022-10-23T00:07:59.151Z,12.93
2022-10-23T00:09:31.317Z,13.35
2022-10-23T00:11:11.600Z,13.38
2022-10-23T00:12:43.958Z,13.23
2022-10-23T00:14:21.721Z,13.23
2022-10-23T00:15:53.713Z,14.38
2022-10-23T00:17:25.645Z,14.38
2022-10-23T00:18:57.801Z,13.77
2022-10-23T00:20:29.945Z,14.38
2022-10-23T00:22:01.961Z,13.70
2022-10-23T00:23:34.283Z,11.70
2022-10-23T00:25:07.972Z,12.13
2022-10-23T00:26:41.010Z,11.40
2022-10-23T00:28:19.229Z,10.80
2022-10-23T00:29:51.245Z,10.95
2022-10-23T00:31:25.423Z,11.15
2022-10-23T00:32:57.455Z,11.35
2022-10-23T00:34:29.516Z,11.63
2022-10-23T00:36:01.487Z,11.13
2022-10-23T00:37:33.668Z,10.38
2022-10-23T00:39:06.343Z,10.77
2022-10-23T00:40:39.358Z,10.45
2022-10-23T00:42:15.964Z,9.98
2022-10-23T00:43:58.787Z,10.25
2022-10-23T00:45:33.719Z,9.93
2022-10-23T00:47:05.790Z,10.68
2022-10-23T00:48:37.825Z,10.07
2022-10-23T00:50:09.920Z,9.77
2022-10-23T00:51:45.600Z,10.55
2022-10-23T00:53:18.494Z,10.02
2022-10-23T00:54:50.509Z,8.95
2022-10-23T00:56:22.497Z,10.18
2022-10-23T00:57:55.632Z,9.63
2022-10-23T00:59:28.111Z,8.85
2022-10-23T01:01:00.213Z,9.85
2022-10-23T01:02:32.231Z,10.18
2022-10-23T01:04:06.459Z,9.85
2022-10-23T01:07:45.703Z,9.93
2022-10-23T01:09:31.960Z,9.73
2022-10-23T01:11:15.743Z,9.60
2022-10-23T01:13:43.099Z,8.93
2022-10-23T01:15:26.478Z,9.48
2022-10-23T01:17:09.242Z,9.57
2022-10-23T01:18:49.796Z,9.35
2022-10-23T01:20:33.608Z,9.20
2022-10-23T01:22:17.633Z,9.27
2022-10-23T01:25:54.951Z,8.90
2022-10-23T01:27:32.201Z,8.93
2022-10-23T01:29:04.358Z,8.60
2022-10-23T01:32:18.933Z,8.63
2022-10-23T01:34:06.533Z,8.60
2022-10-23T01:35:50.017Z,9.18
2022-10-23T01:37:30.947Z,9.18
2022-10-23T01:39:07.623Z,8.90
2022-10-23T01:40:58.428Z,8.35
2022-10-23T01:42:35.237Z,8.77
2022-10-23T01:44:17.273Z,8.13
2022-10-23T01:45:56.843Z,8.52
2022-10-23T01:47:30.561Z,8.60
2022-10-23T01:49:03.663Z,8.82
2022-10-23T01:50:37.094Z,8.90
2022-10-23T01:53:44.205Z,8.15
2022-10-23T01:55:17.040Z,8.18
2022-10-23T01:56:50.595Z,8.10
2022-10-23T02:00:01.110Z,8.48
2022-10-23T02:01:34.432Z,8.38
2022-10-23T02:05:10.609Z,8.50
2022-10-23T02:06:42.660Z,9.27
2022-10-23T02:08:14.838Z,8.32
2022-10-23T02:09:46.848Z,9.13
2022-10-23T02:11:21.441Z,8.32
2022-10-23T02:13:13.030Z,9.45
2022-10-23T02:15:12.646Z,9.73
2022-10-23T02:16:55.605Z,9.63
2022-10-23T02:18:48.449Z,9.10
2022-10-23T02:20:22.759Z,9.43
2022-10-23T02:22:00.551Z,9.05
2022-10-23T02:23:33.542Z,8.70
2022-10-23T02:25:33.376Z,9.35
2022-10-23T02:27:15.307Z,8.93
2022-10-23T02:28:54.679Z,9.23
2022-10-23T02:30:26.759Z,9.57
2022-10-23T02:31:58.894Z,9.13
2022-10-23T02:33:31.378Z,8.52
2022-10-23T02:35:03.984Z,8.85
2022-10-23T02:36:38.745Z,8.37
2022-10-23T02:38:30.436Z,8.00
2022-10-23T02:40:05.263Z,8.52
2022-10-23T02:41:55.806Z,7.55
2022-10-23T02:43:36.055Z,7.75
2022-10-23T02:45:28.911Z,8.55
2022-10-23T02:47:00.933Z,8.40
2022-10-23T02:48:43.747Z,8.25
2022-10-23T02:50:28.520Z,8.20
2022-10-23T02:52:29.738Z,8.70
2022-10-23T02:54:37.514Z,8.07
2022-10-23T02:56:15.130Z,8.38
2022-10-23T02:58:09.194Z,8.63
2022-10-23T02:59:59.726Z,9.45
2022-10-23T03:03:58.549Z,7.82
2022-10-23T03:05:36.198Z,8.75
2022-10-23T03:07:12.334Z,8.27
2022-10-23T03:08:48.948Z,8.68
2022-10-23T03:10:21.307Z,9.13
2022-10-23T03:11:53.354Z,12.02
2022-10-23T03:13:25.413Z,12.45
2022-10-23T03:14:57.448Z,10.10
2022-10-23T03:16:29.435Z,10.90
2022-10-23T03:18:01.515Z,10.50
2022-10-23T03:19:33.531Z,10.23
2022-10-23T03:21:05.583Z,10.50
2022-10-23T03:22:38.095Z,9.73
2022-10-23T03:24:10.104Z,10.30
2022-10-23T03:25:42.219Z,9.38
2022-10-23T03:27:14.259Z,9.07
2022-10-23T03:28:46.322Z,9.30
2022-10-23T03:30:18.397Z,9.07
2022-10-23T03:31:50.488Z,8.65
2022-10-23T03:33:23.011Z,9.13
2022-10-23T03:34:54.994Z,9.10
2022-10-23T03:36:26.921Z,8.18
2022-10-23T03:37:58.988Z,10.15
2022-10-23T03:39:30.977Z,11.35
2022-10-23T03:41:05.824Z,10.77
2022-10-23T03:42:37.854Z,13.25
2022-10-23T03:44:09.878Z,11.77
2022-10-23T03:45:41.915Z,10.43
2022-10-23T03:47:16.383Z,10.02
2022-10-23T03:48:48.394Z,10.32
2022-10-23T03:50:20.867Z,10.82
2022-10-23T03:51:53.295Z,9.98
2022-10-23T03:53:25.336Z,10.40
2022-10-23T03:54:57.365Z,10.25
2022-10-23T03:56:29.395Z,9.95
2022-10-23T03:58:01.528Z,9.68
2022-10-23T03:59:33.499Z,11.20
2022-10-23T04:01:05.726Z,11.20
2022-10-23T04:02:37.993Z,10.38
2022-10-23T04:04:10.092Z,10.70
2022-10-23T04:05:42.680Z,11.18
2022-10-23T04:07:14.609Z,13.20
2022-10-23T04:08:46.713Z,17.67
2022-10-23T04:10:18.828Z,24.10
2022-10-23T04:11:50.821Z,33.15
2022-10-23T04:13:22.925Z,29.98
2022-10-23T04:14:55.016Z,20.60
2022-10-23T04:16:27.194Z,17.30
2022-10-23T04:17:59.195Z,16.35
2022-10-23T04:19:31.361Z,14.65
2022-10-23T04:21:03.598Z,14.98
2022-10-23T04:22:35.652Z,12.00
2022-10-23T04:24:07.843Z,15.75
2022-10-23T04:25:39.918Z,14.23
2022-10-23T04:27:12.015Z,13.93
2022-10-23T04:28:44.068Z,13.82
2022-10-23T04:30:16.142Z,14.57
2022-10-23T04:31:48.413Z,18.23
2022-10-23T04:33:23.433Z,22.00
2022-10-23T04:34:55.631Z,50.03
2022-10-23T04:36:27.712Z,50.30
2022-10-23T04:37:59.723Z,47.85
2022-10-23T04:39:31.734Z,39.33
2022-10-23T04:41:03.769Z,41.25
2022-10-23T04:42:35.772Z,48.17
2022-10-23T04:44:08.094Z,70.88
2022-10-23T04:45:40.261Z,59.25
2022-10-23T04:47:12.441Z,72.15
2022-10-23T04:48:44.589Z,97.95
2022-10-23T04:50:16.915Z,64.38
2022-10-23T04:51:48.964Z,70.55
2022-10-23T04:53:21.149Z,61.35
2022-10-23T04:54:53.202Z,62.53
2022-10-23T04:56:25.260Z,60.60
2022-10-23T04:57:57.251Z,45.60
2022-10-23T04:59:29.253Z,37.80
2022-10-23T05:02:35.182Z,24.55
2022-10-23T05:04:07.367Z,23.58
2022-10-23T05:05:39.434Z,30.45
2022-10-23T05:07:11.548Z,36.83
2022-10-23T05:08:43.643Z,36.85
2022-10-23T05:10:15.984Z,27.80
2022-10-23T05:11:48.099Z,27.77
2022-10-23T05:13:20.592Z,27.83
2022-10-23T05:14:52.885Z,25.42
2022-10-23T05:16:33.297Z,27.10
2022-10-23T05:18:13.309Z,23.85
2022-10-23T05:19:54.037Z,19.98
2022-10-23T05:21:28.315Z,20.05
2022-10-23T05:23:01.146Z,22.00
2022-10-23T05:24:33.145Z,18.83
2022-10-23T05:26:05.760Z,15.45
2022-10-23T05:27:37.783Z,17.25
2022-10-23T05:29:09.789Z,15.90
2022-10-23T05:32:16.456Z,16.98
2022-10-23T05:33:48.614Z,16.35
2022-10-23T05:35:23.124Z,16.15
2022-10-23T05:36:55.822Z,14.70
2022-10-23T05:38:30.336Z,16.98
2022-10-23T05:40:02.485Z,16.85
2022-10-23T05:41:34.611Z,19.23
2022-10-23T05:43:06.852Z,22.23
2022-10-23T05:44:39.089Z,18.17
2022-10-23T05:46:11.389Z,18.50
2022-10-23T05:47:49.729Z,23.40
2022-10-23T05:49:21.964Z,39.05
2022-10-23T05:50:53.971Z,34.28
2022-10-23T05:52:26.341Z,33.92
2022-10-23T05:53:58.493Z,30.63
2022-10-23T05:55:30.881Z,19.13
2022-10-23T05:57:03.159Z,25.02
2022-10-23T05:58:35.467Z,32.55
2022-10-23T06:00:11.696Z,31.08
2022-10-23T06:01:46.898Z,31.92
2022-10-23T06:03:19.070Z,30.52
2022-10-23T06:04:51.154Z,23.92
2022-10-23T06:06:23.374Z,17.80
2022-10-23T06:08:00.136Z,23.23
2022-10-23T06:09:32.518Z,19.40
2022-10-23T06:11:15.132Z,13.45
2022-10-23T06:12:47.145Z,14.93
2022-10-23T06:14:19.457Z,15.80
2022-10-23T06:15:51.510Z,13.70
2022-10-23T06:17:23.656Z,8.82
2022-10-23T06:18:56.336Z,10.98
2022-10-23T06:20:28.877Z,10.15
2022-10-23T06:22:01.125Z,9.38
2022-10-23T06:23:34.723Z,8.18
2022-10-23T06:25:07.607Z,8.70
2022-10-23T06:26:39.934Z,8.80
2022-10-23T06:28:12.432Z,7.20
2022-10-23T06:29:46.313Z,7.50
2022-10-23T06:31:20.012Z,7.38
2022-10-23T06:32:52.296Z,6.80
2022-10-23T06:34:24.467Z,7.30
2022-10-23T06:37:30.395Z,6.82
2022-10-23T06:39:02.801Z,6.80
2022-10-23T06:40:35.248Z,7.00
2022-10-23T06:42:07.833Z,6.47
2022-10-23T06:43:40.228Z,6.40
2022-10-23T06:45:12.538Z,6.45
2022-10-23T06:46:47.532Z,6.85
2022-10-23T06:48:19.636Z,6.38
2022-10-23T06:49:51.917Z,6.50
2022-10-23T06:51:25.578Z,6.68
2022-10-23T06:52:57.991Z,7.35
2022-10-23T06:54:30.254Z,6.43
2022-10-23T06:56:03.211Z,6.10
2022-10-23T06:57:35.813Z,6.82
2022-10-23T06:59:08.116Z,6.38
2022-10-23T07:00:40.593Z,6.30
2022-10-23T07:02:12.836Z,6.10
2022-10-23T07:03:45.621Z,6.30
2022-10-23T07:05:18.604Z,6.25
2022-10-23T07:06:50.809Z,6.32
2022-10-23T07:08:23.227Z,6.78
2022-10-23T07:09:55.338Z,5.70
2022-10-23T07:11:27.755Z,5.75
2022-10-23T07:13:01.416Z,5.70
2022-10-23T07:14:36.307Z,6.13
2022-10-23T07:16:19.640Z,5.60
2022-10-23T07:17:51.767Z,5.90
2022-10-23T07:19:25.513Z,5.75
2022-10-23T07:20:59.102Z,5.63
2022-10-23T07:22:31.541Z,5.65
2022-10-23T07:24:04.373Z,6.13
2022-10-23T07:25:36.664Z,4.97
2022-10-23T07:27:08.793Z,6.13
2022-10-23T07:28:41.973Z,5.20
2022-10-23T07:30:15.330Z,5.03
2022-10-23T07:33:19.683Z,5.00
2022-10-23T07:34:51.980Z,5.85
2022-10-23T07:36:24.368Z,5.60
2022-10-23T07:37:57.040Z,5.05
2022-10-23T07:39:29.380Z,5.05
2022-10-23T07:41:02.276Z,4.93
2022-10-23T07:42:34.701Z,3.88
2022-10-23T07:44:07.210Z,4.93
2022-10-23T07:45:39.489Z,5.47
2022-10-23T07:47:11.611Z,4.40
2022-10-23T07:48:44.097Z,4.30
2022-10-23T07:51:51.406Z,4.15
2022-10-23T07:53:25.851Z,4.15
2022-10-23T07:54:58.026Z,4.18
2022-10-23T07:56:30.364Z,3.30
2022-10-23T07:58:02.619Z,3.40
2022-10-23T07:59:37.903Z,3.45
2022-10-23T08:01:18.538Z,3.65
2022-10-23T08:02:51.002Z,3.70
2022-10-23T08:04:23.611Z,3.37
2022-10-23T08:05:56.991Z,3.30
2022-10-23T08:09:05.484Z,3.20
2022-10-23T08:10:38.987Z,3.40
2022-10-23T08:12:11.420Z,3.42
2022-10-23T08:13:44.691Z,3.40
2022-10-23T08:16:49.223Z,4.07
2022-10-23T08:18:21.502Z,2.90
2022-10-23T08:19:53.872Z,3.17
2022-10-23T08:21:26.285Z,3.28
2022-10-23T08:22:58.552Z,3.10
2022-10-23T08:24:30.775Z,3.33
2022-10-23T08:26:05.723Z,3.25
2022-10-23T08:27:38.912Z,3.13
2022-10-23T08:29:11.349Z,3.20
2022-10-23T08:30:43.689Z,3.10
2022-10-23T08:32:16.057Z,3.30
2022-10-23T08:36:53.905Z,3.25
2022-10-23T08:38:26.232Z,3.10
2022-10-23T08:39:58.542Z,3.00
2022-10-23T08:41:43.301Z,3.60
2022-10-23T08:43:21.860Z,3.50
2022-10-23T08:45:27.879Z,3.78
2022-10-23T08:47:12.948Z,3.35
2022-10-23T08:48:53.231Z,3.67
2022-10-23T08:52:47.454Z,3.72
2022-10-23T08:54:47.405Z,3.70
2022-10-23T08:56:29.466Z,3.85
2022-10-23T08:58:03.211Z,3.67
2022-10-23T08:59:59.453Z,3.95
2022-10-23T09:01:38.559Z,3.35
2022-10-23T09:03:13.555Z,4.20
2022-10-23T09:04:47.889Z,3.40
2022-10-23T09:06:36.017Z,3.63
2022-10-23T09:08:34.069Z,3.55
2022-10-23T09:10:31.541Z,3.50
2022-10-23T09:12:07.852Z,3.10
2022-10-23T09:13:50.849Z,3.55
2022-10-23T09:15:36.022Z,3.22
2022-10-23T09:17:25.794Z,3.13
2022-10-23T09:18:58.359Z,2.90
2022-10-23T09:20:35.041Z,3.20
2022-10-23T09:22:07.479Z,3.20
2022-10-23T09:23:39.861Z,3.13
2022-10-23T09:25:23.321Z,3.83
2022-10-23T09:26:56.108Z,3.03
2022-10-23T09:28:32.027Z,3.25
2022-10-23T09:30:04.856Z,2.83
2022-10-23T09:31:49.110Z,2.90
2022-10-23T09:33:26.662Z,2.78
2022-10-23T09:34:59.133Z,2.83
2022-10-23T09:36:31.483Z,2.80
2022-10-23T09:38:03.751Z,2.90
2022-10-23T09:39:37.017Z,2.78
2022-10-23T09:43:04.194Z,2.67
2022-10-23T09:44:36.489Z,2.78
2022-10-23T09:46:09.811Z,2.42
2022-10-23T09:47:42.629Z,2.50
2022-10-23T09:49:20.995Z,2.47
2022-10-23T09:51:17.953Z,2.55
2022-10-23T09:52:53.557Z,2.50
2022-10-23T09:54:25.794Z,2.38
2022-10-23T09:56:02.307Z,2.50
2022-10-23T09:57:42.009Z,2.63
2022-10-23T09:59:14.611Z,2.40
2022-10-23T10:00:51.133Z,2.28
2022-10-23T10:02:30.857Z,2.72
2022-10-23T10:04:03.194Z,2.60
2022-10-23T10:05:37.942Z,2.43
2022-10-23T10:07:21.967Z,2.17
2022-10-23T10:10:45.744Z,2.30
2022-10-23T10:12:46.952Z,2.47
2022-10-23T10:14:56.140Z,2.60
2022-10-23T10:16:48.608Z,2.33
2022-10-23T10:18:48.096Z,2.63
2022-10-23T10:20:46.763Z,2.42
2022-10-23T10:22:30.733Z,2.72
2022-10-23T10:24:22.173Z,2.92
2022-10-23T10:26:16.674Z,2.25
2022-10-23T10:28:07.425Z,2.20
2022-10-23T10:30:01.153Z,2.40
2022-10-23T10:32:02.498Z,2.20
2022-10-23T10:33:53.675Z,2.70
2022-10-23T10:35:34.793Z,2.20
2022-10-23T10:37:32.944Z,2.25
2022-10-23T10:39:12.257Z,2.20
2022-10-23T10:41:05.918Z,2.40
2022-10-23T10:42:49.368Z,2.25
2022-10-23T10:46:29.060Z,2.28
2022-10-23T10:48:08.217Z,2.22
2022-10-23T10:49:58.008Z,2.10
2022-10-23T10:51:39.657Z,2.30
2022-10-23T10:53:45.743Z,1.98
2022-10-23T10:55:54.423Z,2.00
2022-10-23T10:57:33.563Z,2.13
2022-10-23T10:59:13.191Z,2.13
2022-10-23T11:00:46.088Z,1.67
2022-10-23T11:02:29.463Z,2.00
2022-10-23T11:04:19.498Z,2.10
2022-10-23T11:05:52.307Z,2.25
2022-10-23T11:07:27.956Z,2.03
2022-10-23T11:09:19.714Z,1.95
2022-10-23T11:10:57.592Z,1.95
2022-10-23T11:12:33.096Z,2.30
2022-10-23T11:14:05.639Z,2.50
2022-10-23T11:15:43.715Z,2.63
2022-10-23T11:17:40.159Z,2.00
2022-10-23T11:19:34.735Z,2.50
2022-10-23T11:21:27.619Z,2.53
2022-10-23T11:23:36.911Z,2.25
2022-10-23T11:25:32.626Z,1.90
2022-10-23T11:27:27.562Z,2.17
2022-10-23T11:29:14.187Z,3.00
2022-10-23T11:31:11.539Z,2.80
2022-10-23T11:33:02.291Z,2.60
2022-10-23T11:34:46.951Z,2.35
2022-10-23T11:36:21.783Z,1.92
2022-10-23T11:38:28.580Z,2.13
2022-10-23T11:40:22.584Z,2.08
2022-10-23T11:42:19.131Z,1.83
2022-10-23T11:43:57.484Z,1.60
2022-10-23T11:45:47.934Z,1.85
2022-10-23T11:47:39.339Z,1.92
2022-10-23T11:49:25.160Z,1.70
2022-10-23T11:50:59.161Z,2.22
2022-10-23T11:52:50.656Z,3.38
2022-10-23T11:54:28.778Z,2.30
2022-10-23T11:56:27.398Z,2.08
2022-10-23T11:58:05.907Z,1.80
2022-10-23T11:59:50.267Z,1.85
2022-10-23T12:01:47.315Z,2.10
2022-10-23T12:03:24.606Z,1.90
2022-10-23T12:04:57.113Z,1.80
2022-10-23T12:06:52.595Z,1.50
2022-10-23T12:08:28.163Z,2.10
2022-10-23T12:10:03.239Z,1.85
2022-10-23T12:11:48.184Z,2.50
2022-10-23T12:13:38.383Z,1.55
2022-10-23T12:15:16.440Z,1.63
2022-10-23T12:16:48.771Z,2.00
2022-10-23T12:18:22.373Z,1.63
